Hlavní strana
METAR-TAF:

METAR-TAF

Letiště :

Shenandoah Municipal Airport

Shenandoah, Iowa, Spojené státy americké

zeměpisná šířka: 40-45N, zeměpisná délka: 095-25W, výška: 296 m

Aktuální stav počasí

Zpráva byla vytvořena před 2 hodinami a 5 minutami, v 23:55 UTC
Severní vítr 18 kt s nárazy do 23 kt
Teplota 3°C
Vlhkost vzduchu 48%
Tlak 1023 hPa
Viditelnost: 16.1 km
Oblačno až skoro zataženo ve výšce 10000 ft

METAR: KSDA 252355Z AUTO 01018G23KT 10SM BKN100 03/M07 A3020 RMK AO2

Čas: 20:00 (02:00 UTC)


TAF: chybějící

Stav a předpovědi počasí z více než 4 000 letišť (zprávy METAR a TAF).

Červené a žluté tečky na mapě představují dostupné meteorologické stanice.

Když kurzor umístíte na tečku, zobrazí se název stanice.

Pak kliknutím zobrazíte stav a předpověď počasí.

Chcete-li změnit mapu, kliknutím na zelené tlačítko se znaménkem +mapu přiblížíte, kliknutím na zelené tlačítko se znaménkem – mapu oddálíte a kliknutím na zelené šipky přejdete na sousední mapy.


METAR-TAF: